Time;durP1;ratioP1;P1;durP2;ratioP2;P2;SDS_P1;SDS_P2;PMS_P1;PMS_P2;Temp;Humidity;BMP_temperature;BMP_pressure;BME280_temperature;BME280_humidity;BME280_pressure;Samples;Min_cycle;Max_cycle;Signal;HPM_P1;HPM_P2
2022/09/16 00:00:32;;;;;;;136.37;86.50;;;;;;;23.58;60.29;95885.30;364743;289;620188;-61
2022/09/16 00:02:34;;;;;;;277.35;159.20;;;;;;;23.56;60.16;95884.84;365260;289;620311;-62
2022/09/16 00:04:36;;;;;;;1999.90;999.90;;;;;;;23.58;61.16;95885.30;364734;289;619935;-62
2022/09/16 00:06:38;;;;;;;523.25;311.48;;;;;;;23.64;60.09;95886.58;364759;289;621441;-61
2022/09/16 00:08:42;;;;;;;1400.80;596.10;;;;;;;23.65;60.76;95879.88;365301;289;620436;-62
2022/09/16 00:10:44;;;;;;;575.90;347.95;;;;;;;23.74;59.96;95887.10;365225;289;619448;-62
2022/09/16 00:12:46;;;;;;;899.83;448.25;;;;;;;23.61;60.23;95893.45;365623;289;620774;-62
2022/09/16 00:14:48;;;;;;;979.70;475.85;;;;;;;23.69;60.57;95891.56;366116;289;620124;-61
2022/09/16 00:16:51;;;;;;;1419.72;810.43;;;;;;;23.78;59.80;95890.70;365890;289;620110;-62
2022/09/16 00:18:53;;;;;;;1974.73;878.27;;;;;;;23.74;61.03;95888.48;365605;289;619549;-62
2022/09/16 00:20:55;;;;;;;683.83;419.73;;;;;;;23.92;59.38;95890.88;365530;289;620280;-60
2022/09/16 00:22:57;;;;;;;601.75;350.87;;;;;;;24.03;59.27;95889.62;364686;289;621414;-60
2022/09/16 00:24:59;;;;;;;476.05;255.12;;;;;;;24.23;58.75;95879.39;365544;289;620097;-59
2022/09/16 00:27:01;;;;;;;384.13;192.87;;;;;;;24.27;58.50;95884.98;365452;289;620244;-59
2022/09/16 00:29:04;;;;;;;321.35;156.65;;;;;;;24.26;58.48;95885.37;365096;289;620267;-58
2022/09/16 00:31:06;;;;;;;218.57;99.20;;;;;;;24.39;58.44;95880.59;364534;289;621362;-59
2022/09/16 00:33:08;;;;;;;179.85;76.62;;;;;;;24.48;58.12;95888.61;364589;289;620380;-60
2022/09/16 00:35:10;;;;;;;112.80;49.80;;;;;;;24.35;58.25;95887.25;365365;289;620511;-60
2022/09/16 00:37:12;;;;;;;92.88;36.35;;;;;;;24.37;58.22;95893.23;364950;289;621469;-60
2022/09/16 00:39:14;;;;;;;68.30;30.02;;;;;;;24.23;58.49;95894.61;364664;289;620126;-59
2022/09/16 00:41:17;;;;;;;52.70;19.80;;;;;;;24.24;58.45;95889.31;364789;289;621225;-60
2022/09/16 00:43:19;;;;;;;39.05;17.12;;;;;;;24.22;58.57;95891.64;365002;289;620980;-59
2022/09/16 00:45:21;;;;;;;29.67;14.55;;;;;;;24.24;58.50;95886.55;365179;289;620056;-60
2022/09/16 00:47:23;;;;;;;23.42;12.50;;;;;;;24.14;58.73;95884.45;365030;289;621306;-61
2022/09/16 00:49:25;;;;;;;22.85;11.33;;;;;;;24.18;58.76;95890.81;363987;290;620863;-60
2022/09/16 00:51:27;;;;;;;19.12;10.60;;;;;;;24.13;58.78;95882.03;364276;290;621569;-60
2022/09/16 00:53:29;;;;;;;10.82;9.00;;;;;;;24.09;58.89;95886.16;363847;290;621801;-59
2022/09/16 00:55:32;;;;;;;15.28;8.80;;;;;;;24.05;58.87;95885.33;363325;290;620260;-57
2022/09/16 00:57:34;;;;;;;12.43;8.43;;;;;;;23.96;59.12;95887.58;363689;290;621262;-59
2022/09/16 00:59:36;;;;;;;13.35;8.08;;;;;;;23.99;59.02;95886.82;364185;290;619997;-58
2022/09/16 01:01:38;;;;;;;8.83;7.92;;;;;;;23.98;59.02;95883.84;364116;290;621253;-59
2022/09/16 01:03:40;;;;;;;9.90;7.42;;;;;;;24.01;59.04;95890.00;362825;290;621567;-59
2022/09/16 01:05:42;;;;;;;10.93;7.25;;;;;;;23.92;59.20;95889.49;364529;290;620556;-59
2022/09/16 01:07:44;;;;;;;7.97;7.10;;;;;;;23.92;59.22;95888.11;363925;290;621372;-57
2022/09/16 01:09:47;;;;;;;7.35;6.65;;;;;;;23.94;59.18;95892.12;363743;290;620093;-57
2022/09/16 01:11:49;;;;;;;10.93;6.45;;;;;;;23.89;59.30;95892.43;363776;290;621373;-58
2022/09/16 01:13:51;;;;;;;7.20;6.45;;;;;;;23.85;59.39;95886.66;363578;290;621171;-60
2022/09/16 01:15:53;;;;;;;9.13;6.83;;;;;;;23.80;59.46;95892.50;363360;290;622424;-61
2022/09/16 01:17:55;;;;;;;7.42;6.20;;;;;;;23.79;59.50;95888.14;364013;290;620314;-61
2022/09/16 01:19:57;;;;;;;8.18;6.60;;;;;;;23.76;59.56;95889.70;364113;290;621489;-61
2022/09/16 01:22:00;;;;;;;7.28;6.58;;;;;;;23.68;59.72;95892.73;364534;290;620289;-59
2022/09/16 01:24:02;;;;;;;6.83;6.20;;;;;;;23.69;59.79;95894.33;363941;290;620252;-60
2022/09/16 01:26:05;;;;;;;6.97;6.28;;;;;;;23.68;59.72;95891.35;363877;290;621536;-59
2022/09/16 01:28:07;;;;;;;6.80;6.10;;;;;;;23.65;59.79;95890.94;363679;290;621740;-59
2022/09/16 01:30:09;;;;;;;7.05;6.45;;;;;;;23.67;59.77;95883.64;363427;290;621127;-59
2022/09/16 01:32:11;;;;;;;6.45;5.72;;;;;;;23.64;59.85;95878.87;363579;290;621418;-60
2022/09/16 01:34:13;;;;;;;7.15;6.55;;;;;;;23.59;59.88;95884.13;364015;290;618653;-59
2022/09/16 01:36:15;;;;;;;7.10;6.40;;;;;;;23.58;59.92;95886.67;364437;290;621589;-59
2022/09/16 01:38:17;;;;;;;6.90;5.78;;;;;;;23.60;59.86;95881.56;364160;290;620806;-60
2022/09/16 01:40:19;;;;;;;6.53;5.87;;;;;;;23.59;59.89;95885.50;363643;290;621006;-60
2022/09/16 01:42:22;;;;;;;6.80;6.20;;;;;;;23.56;59.96;95881.28;363701;290;620649;-58
2022/09/16 01:44:25;;;;;;;6.53;5.95;;;;;;;23.54;60.00;95887.20;363285;290;620467;-59
2022/09/16 01:46:28;;;;;;;6.62;6.03;;;;;;;23.51;60.09;95887.95;363267;290;620825;-60
2022/09/16 01:48:30;;;;;;;7.53;6.00;;;;;;;23.52;60.10;95886.78;363596;290;620580;-59
2022/09/16 01:50:32;;;;;;;8.38;6.55;;;;;;;23.45;60.16;95880.34;363756;290;619793;-58
2022/09/16 01:52:34;;;;;;;7.42;6.70;;;;;;;23.45;60.23;95885.28;363929;290;622768;-60
2022/09/16 01:54:36;;;;;;;6.90;6.30;;;;;;;23.43;60.30;95884.07;364661;290;621242;-58
2022/09/16 01:56:38;;;;;;;7.05;6.35;;;;;;;23.46;60.17;95888.26;363912;290;621406;-58
2022/09/16 01:58:40;;;;;;;7.95;6.20;;;;;;;23.45;60.38;95878.95;363923;290;619010;-61
2022/09/16 02:00:43;;;;;;;6.97;6.28;;;;;;;23.40;60.54;95881.47;364270;290;620777;-59
2022/09/16 02:02:45;;;;;;;7.00;6.40;;;;;;;23.37;60.64;95879.43;362637;290;619560;-60
2022/09/16 02:04:47;;;;;;;6.90;6.30;;;;;;;23.35;60.65;95880.39;364319;290;620353;-58
2022/09/16 02:06:49;;;;;;;7.62;6.65;;;;;;;23.42;60.63;95870.03;363872;290;622347;-61
2022/09/16 02:08:52;;;;;;;6.72;6.12;;;;;;;23.34;60.67;95866.36;363917;290;621353;-61
2022/09/16 02:10:54;;;;;;;7.45;6.70;;;;;;;23.36;60.65;95867.58;362918;290;621670;-61
2022/09/16 02:12:56;;;;;;;7.47;5.90;;;;;;;23.33;60.81;95866.16;364215;290;620276;-61
2022/09/16 02:14:59;;;;;;;9.60;6.35;;;;;;;23.35;60.83;95865.19;364013;290;620099;-58
2022/09/16 02:17:01;;;;;;;6.62;6.05;;;;;;;23.29;60.87;95866.70;364400;290;622203;-61
2022/09/16 02:19:03;;;;;;;7.67;5.83;;;;;;;23.29;60.83;95871.64;364629;290;619917;-60
2022/09/16 02:21:05;;;;;;;7.00;6.33;;;;;;;23.27;60.92;95870.39;363513;290;620256;-60
2022/09/16 02:23:07;;;;;;;6.72;6.08;;;;;;;23.30;60.93;95869.67;363712;290;619332;-58
2022/09/16 02:25:09;;;;;;;7.70;6.25;;;;;;;23.29;60.98;95863.93;363303;290;621180;-61
2022/09/16 02:27:11;;;;;;;7.08;6.37;;;;;;;23.23;61.04;95873.70;363100;290;620201;-61
2022/09/16 02:29:14;;;;;;;6.75;6.05;;;;;;;23.23;61.11;95874.50;363880;290;619874;-60
2022/09/16 02:31:16;;;;;;;7.28;6.50;;;;;;;23.24;61.15;95874.70;364117;290;620761;-59
2022/09/16 02:33:18;;;;;;;7.33;6.62;;;;;;;23.24;61.15;95870.56;363920;290;621495;-59
2022/09/16 02:35:20;;;;;;;6.47;5.83;;;;;;;23.25;61.13;95874.12;363928;290;619469;-61
2022/09/16 02:37:22;;;;;;;6.90;6.12;;;;;;;23.22;61.27;95871.52;363513;290;620605;-59
2022/09/16 02:39:24;;;;;;;7.00;6.30;;;;;;;23.24;61.23;95869.17;363822;290;620300;-61
2022/09/16 02:41:26;;;;;;;8.23;6.75;;;;;;;23.21;61.14;95864.98;364295;290;620390;-61
2022/09/16 02:43:29;;;;;;;7.28;6.58;;;;;;;23.19;61.16;95866.75;363845;290;620366;-61
2022/09/16 02:45:31;;;;;;;7.08;6.35;;;;;;;23.16;61.33;95866.09;364512;290;621648;-61
2022/09/16 02:47:33;;;;;;;6.10;5.58;;;;;;;23.17;61.25;95867.67;364038;290;620439;-61
2022/09/16 02:49:35;;;;;;;6.80;6.20;;;;;;;23.15;61.24;95872.78;363556;290;619187;-61
2022/09/16 02:51:37;;;;;;;8.25;6.40;;;;;;;23.17;61.27;95879.32;364662;290;620247;-60
2022/09/16 02:53:39;;;;;;;5.90;5.40;;;;;;;23.17;61.41;95880.70;364198;290;622145;-61
2022/09/16 02:55:41;;;;;;;6.80;6.20;;;;;;;23.14;61.40;95886.98;364113;290;621152;-61
2022/09/16 02:57:43;;;;;;;7.20;6.12;;;;;;;23.17;61.63;95889.00;364126;290;621220;-59
2022/09/16 02:59:46;;;;;;;6.78;5.80;;;;;;;23.14;61.42;95885.59;364275;290;619399;-59
2022/09/16 03:01:48;;;;;;;8.60;6.30;;;;;;;23.14;61.57;95890.54;364173;290;621398;-60
2022/09/16 03:03:50;;;;;;;7.00;5.83;;;;;;;23.11;61.58;95897.41;364020;290;621048;-61
2022/09/16 03:05:52;;;;;;;7.12;5.95;;;;;;;23.08;61.67;95895.59;363992;290;619560;-59
2022/09/16 03:07:54;;;;;;;6.33;5.67;;;;;;;23.10;61.59;95891.08;364150;290;618935;-59
2022/09/16 03:09:56;;;;;;;7.08;6.37;;;;;;;23.05;61.62;95882.50;364212;290;620903;-61
2022/09/16 03:11:58;;;;;;;6.62;5.75;;;;;;;23.06;61.71;95889.62;364180;290;620606;-60
2022/09/16 03:14:00;;;;;;;7.05;5.95;;;;;;;23.07;61.67;95880.19;363709;290;619465;-61
2022/09/16 03:16:03;;;;;;;8.08;5.97;;;;;;;23.05;61.62;95881.70;363784;290;622473;-58
2022/09/16 03:18:05;;;;;;;6.72;6.08;;;;;;;23.07;61.73;95884.34;363008;290;621067;-61
2022/09/16 03:20:09;;;;;;;6.90;6.20;;;;;;;23.04;61.60;95889.20;364127;290;620613;-60
2022/09/16 03:22:11;;;;;;;6.90;6.20;;;;;;;23.04;61.88;95888.41;363486;290;592393;-58
2022/09/16 03:24:13;;;;;;;7.33;5.47;;;;;;;23.04;61.68;95881.50;363370;290;621717;-60
2022/09/16 03:26:15;;;;;;;6.70;6.00;;;;;;;23.01;61.66;95880.28;363364;290;622730;-60
2022/09/16 03:28:17;;;;;;;6.60;5.65;;;;;;;23.00;61.63;95884.21;363668;290;620311;-59
2022/09/16 03:30:19;;;;;;;6.67;5.70;;;;;;;22.99;61.67;95878.47;364110;290;621151;-60
2022/09/16 03:32:22;;;;;;;6.55;5.72;;;;;;;22.98;61.87;95881.02;363236;290;619897;-61
2022/09/16 03:34:24;;;;;;;6.72;5.87;;;;;;;22.97;61.56;95880.81;364071;290;621227;-60
2022/09/16 03:36:27;;;;;;;6.45;5.85;;;;;;;22.96;61.56;95879.78;363503;290;620974;-60
2022/09/16 03:38:30;;;;;;;7.12;5.85;;;;;;;22.95;61.48;95878.98;364027;290;621370;-60
2022/09/16 03:40:32;;;;;;;6.35;5.75;;;;;;;22.94;61.57;95873.24;364349;290;619967;-60
2022/09/16 03:42:34;;;;;;;6.85;5.00;;;;;;;22.97;61.63;95870.34;363069;290;621127;-60
2022/09/16 03:44:36;;;;;;;6.28;5.35;;;;;;;22.92;61.47;95873.41;363624;290;619995;-60
2022/09/16 03:46:38;;;;;;;6.33;5.62;;;;;;;22.95;61.54;95872.66;364029;290;621472;-60
2022/09/16 03:48:40;;;;;;;5.83;5.33;;;;;;;22.96;61.47;95875.63;363677;290;619117;-61
2022/09/16 03:50:43;;;;;;;5.22;4.72;;;;;;;22.91;61.63;95876.75;363811;290;620572;-59
2022/09/16 03:52:45;;;;;;;6.83;5.58;;;;;;;22.92;61.69;95878.34;364278;290;622236;-60
2022/09/16 03:54:47;;;;;;;6.58;5.47;;;;;;;22.94;61.63;95871.06;364587;290;621558;-60
2022/09/16 03:56:49;;;;;;;6.62;5.42;;;;;;;22.94;61.60;95873.83;365059;290;620493;-58
2022/09/16 03:58:51;;;;;;;5.83;5.30;;;;;;;22.91;61.66;95868.47;364544;290;621048;-60
2022/09/16 04:00:53;;;;;;;5.75;5.10;;;;;;;22.92;61.60;95865.91;364471;290;621133;-58
2022/09/16 04:02:55;;;;;;;5.30;4.78;;;;;;;22.92;61.51;95860.39;364522;290;619693;-61
2022/09/16 04:04:57;;;;;;;5.17;4.65;;;;;;;22.94;61.48;95861.39;363987;290;621112;-60
2022/09/16 04:07:00;;;;;;;6.40;4.97;;;;;;;22.90;61.54;95859.97;364565;290;621398;-61
2022/09/16 04:09:02;;;;;;;5.42;4.92;;;;;;;22.88;61.69;95858.16;364451;290;621317;-60
2022/09/16 04:11:07;;;;;;;5.60;4.97;;;;;;;22.90;61.66;95863.31;364050;290;622390;-60
2022/09/16 04:13:09;;;;;;;5.30;4.80;;;;;;;22.89;61.67;95862.52;364739;290;620893;-61
2022/09/16 04:15:11;;;;;;;6.70;5.25;;;;;;;22.88;61.62;95866.45;365304;290;620320;-58
2022/09/16 04:17:13;;;;;;;6.37;5.30;;;;;;;22.85;61.61;95865.79;364941;290;618657;-59
2022/09/16 04:19:15;;;;;;;5.40;5.00;;;;;;;22.86;61.53;95870.14;364338;290;621387;-60
2022/09/16 04:21:17;;;;;;;7.78;4.65;;;;;;;22.88;61.59;95872.56;364948;290;621545;-60
2022/09/16 04:23:19;;;;;;;5.67;5.05;;;;;;;22.87;61.66;95868.20;365182;290;621288;-60
2022/09/16 04:25:21;;;;;;;5.62;4.97;;;;;;;22.87;61.57;95867.63;365016;290;621802;-60
2022/09/16 04:27:24;;;;;;;5.55;5.00;;;;;;;22.87;61.62;95875.11;364434;290;620408;-61
2022/09/16 04:29:26;;;;;;;6.08;4.87;;;;;;;22.86;61.52;95865.20;364463;290;621147;-60
2022/09/16 04:31:28;;;;;;;7.33;5.15;;;;;;;22.86;61.62;95863.82;365156;290;620993;-61
2022/09/16 04:33:30;;;;;;;5.72;5.12;;;;;;;22.86;61.59;95866.00;364867;290;620019;-58
2022/09/16 04:35:33;;;;;;;5.92;4.50;;;;;;;22.85;61.58;95865.79;364660;290;621190;-62
2022/09/16 04:37:35;;;;;;;5.60;5.05;;;;;;;22.86;61.63;95867.38;364063;290;621006;-61
2022/09/16 04:39:37;;;;;;;6.97;5.35;;;;;;;22.86;61.74;95861.86;364662;290;621040;-60
2022/09/16 04:41:39;;;;;;;5.20;4.70;;;;;;;22.85;61.62;95865.79;363992;290;621291;-65
2022/09/16 04:43:41;;;;;;;6.08;4.97;;;;;;;22.84;61.48;95864.20;364422;290;621412;-61
2022/09/16 04:45:44;;;;;;;6.47;5.20;;;;;;;22.83;61.71;95865.34;364102;290;620675;-58
2022/09/16 04:47:46;;;;;;;5.75;5.10;;;;;;;22.80;61.67;95864.12;363320;290;620423;-60
2022/09/16 04:49:48;;;;;;;5.53;5.03;;;;;;;22.80;61.71;95864.70;364319;290;620223;-61
2022/09/16 04:51:51;;;;;;;5.92;5.00;;;;;;;22.83;61.62;95865.92;364016;290;620450;-60
2022/09/16 04:53:53;;;;;;;6.20;5.60;;;;;;;22.85;61.61;95869.94;363462;290;621189;-62
2022/09/16 04:55:55;;;;;;;7.83;5.40;;;;;;;22.85;61.63;95867.17;364035;290;619937;-60
2022/09/16 04:57:57;;;;;;;5.83;5.33;;;;;;;22.81;61.66;95869.06;363739;290;620525;-60
2022/09/16 04:59:59;;;;;;;6.95;5.72;;;;;;;22.80;61.75;95872.98;363974;290;620779;-61
2022/09/16 05:02:02;;;;;;;6.17;5.55;;;;;;;22.83;61.73;95870.06;364259;290;619928;-62
2022/09/16 05:04:04;;;;;;;5.95;5.45;;;;;;;22.83;61.65;95876.39;364010;290;620755;-61
2022/09/16 05:06:06;;;;;;;6.42;5.37;;;;;;;22.80;61.62;95879.89;364480;290;621232;-61
2022/09/16 05:08:08;;;;;;;5.65;5.15;;;;;;;22.77;61.71;95873.73;364140;290;620772;-61
2022/09/16 05:10:10;;;;;;;6.12;5.45;;;;;;;22.76;61.68;95873.53;364168;290;619596;-60
2022/09/16 05:12:13;;;;;;;7.45;5.30;;;;;;;22.77;61.73;95875.12;364572;290;621132;-61
2022/09/16 05:14:15;;;;;;;6.30;5.72;;;;;;;22.76;61.67;95874.32;364398;290;622410;-60
2022/09/16 05:16:17;;;;;;;6.55;5.87;;;;;;;22.81;61.71;95875.97;363891;290;619897;-61
2022/09/16 05:18:19;;;;;;;6.65;4.92;;;;;;;22.79;61.74;95874.95;364224;290;620595;-61
2022/09/16 05:20:21;;;;;;;5.45;4.95;;;;;;;22.77;61.68;95884.78;364311;290;619734;-61
2022/09/16 05:22:23;;;;;;;8.93;5.30;;;;;;;22.80;61.78;95886.80;363300;290;620791;-61
2022/09/16 05:24:25;;;;;;;7.17;5.40;;;;;;;22.76;61.69;95883.20;363957;290;622799;-61
2022/09/16 05:26:27;;;;;;;6.37;4.92;;;;;;;22.76;61.72;95892.86;363446;290;621494;-60
2022/09/16 05:28:30;;;;;;;5.97;5.25;;;;;;;22.76;61.71;95890.09;364169;290;621198;-61
2022/09/16 05:30:32;;;;;;;6.03;5.20;;;;;;;22.75;61.74;95885.72;363502;290;619374;-60
2022/09/16 05:32:34;;;;;;;7.25;5.65;;;;;;;22.76;61.74;95891.48;363690;290;620998;-61
2022/09/16 05:34:36;;;;;;;8.35;6.03;;;;;;;22.76;61.68;95890.09;363745;290;621409;-61
2022/09/16 05:36:38;;;;;;;7.00;5.15;;;;;;;22.72;61.68;95892.78;363353;290;621527;-60
2022/09/16 05:38:40;;;;;;;5.97;5.33;;;;;;;22.73;61.68;95891.61;364061;290;620876;-61
2022/09/16 05:40:43;;;;;;;5.67;5.03;;;;;;;22.74;61.74;95891.82;364226;290;621591;-61
2022/09/16 05:42:45;;;;;;;6.15;5.62;;;;;;;22.73;61.69;95885.29;363412;290;620225;-59
2022/09/16 05:44:47;;;;;;;5.35;4.85;;;;;;;22.73;61.77;95883.91;363672;290;620419;-61
2022/09/16 05:46:49;;;;;;;4.95;4.55;;;;;;;22.70;61.73;95886.03;364532;290;621520;-61
2022/09/16 05:48:51;;;;;;;6.10;5.47;;;;;;;22.71;61.60;95884.86;364204;290;621074;-61
2022/09/16 05:50:53;;;;;;;6.65;5.03;;;;;;;22.69;61.64;95888.00;364054;290;620835;-61
2022/09/16 05:52:55;;;;;;;5.85;5.35;;;;;;;22.75;61.56;95887.09;363484;290;618713;-62
2022/09/16 05:54:57;;;;;;;5.37;4.87;;;;;;;22.72;61.64;95891.98;363793;290;621465;-61
2022/09/16 05:57:00;;;;;;;5.55;5.03;;;;;;;22.70;61.54;95884.66;363533;290;621905;-61
2022/09/16 05:59:02;;;;;;;5.85;4.60;;;;;;;22.69;61.51;95890.77;363896;290;619928;-61
2022/09/16 06:01:04;;;;;;;4.95;4.53;;;;;;;22.77;61.44;95891.11;364404;290;619332;-60
2022/09/16 06:03:07;;;;;;;6.30;5.20;;;;;;;22.75;61.49;95887.89;363163;290;620786;-59
2022/09/16 06:05:09;;;;;;;5.28;4.78;;;;;;;22.75;61.43;95881.57;364168;290;621345;-59
2022/09/16 06:07:11;;;;;;;5.25;4.75;;;;;;;22.74;61.40;95887.67;363571;290;620275;-60
2022/09/16 06:09:13;;;;;;;7.45;4.83;;;;;;;22.72;61.46;95888.64;362861;290;620932;-60
2022/09/16 06:11:15;;;;;;;4.72;4.33;;;;;;;22.70;61.50;95884.07;363883;290;622302;-60
2022/09/16 06:13:18;;;;;;;4.85;4.45;;;;;;;22.69;61.54;95888.00;363655;290;621118;-59
2022/09/16 06:15:20;;;;;;;5.85;4.37;;;;;;;22.71;61.56;95889.01;363670;290;621271;-60
2022/09/16 06:17:22;;;;;;;5.05;4.62;;;;;;;22.71;61.51;95890.39;364372;290;621132;-59
2022/09/16 06:19:24;;;;;;;6.47;4.40;;;;;;;22.71;61.56;95884.86;363431;290;621371;-60
2022/09/16 06:21:26;;;;;;;5.70;4.37;;;;;;;22.69;61.54;95888.58;364242;290;621234;-59
2022/09/16 06:23:28;;;;;;;5.20;4.40;;;;;;;22.72;61.51;95883.70;363929;290;620453;-59
2022/09/16 06:25:30;;;;;;;6.12;4.70;;;;;;;22.74;61.51;95886.88;364373;290;621291;-58
2022/09/16 06:27:33;;;;;;;5.72;4.40;;;;;;;22.70;61.40;95883.27;364334;290;620621;-59
2022/09/16 06:29:35;;;;;;;5.28;3.87;;;;;;;22.69;61.54;95881.67;364300;290;621446;-58
2022/09/16 06:31:37;;;;;;;4.42;4.10;;;;;;;22.72;61.46;95876.80;363957;290;621312;-60
2022/09/16 06:33:39;;;;;;;4.40;4.00;;;;;;;22.67;61.50;95868.83;363736;290;621201;-60
2022/09/16 06:35:41;;;;;;;4.47;4.00;;;;;;;22.69;61.63;95882.48;363583;290;620207;-60
2022/09/16 06:37:43;;;;;;;4.60;3.77;;;;;;;22.66;61.48;95885.19;364431;290;619043;-58
2022/09/16 06:39:45;;;;;;;4.85;3.98;;;;;;;22.67;61.46;95888.16;363974;290;620764;-58
2022/09/16 06:41:49;;;;;;;4.30;3.72;;;;;;;22.70;61.39;95892.35;364474;290;620075;-58
2022/09/16 06:43:51;;;;;;;5.08;4.00;;;;;;;22.69;61.51;95884.44;364532;290;619906;-58
2022/09/16 06:45:53;;;;;;;4.62;3.77;;;;;;;22.70;61.64;95884.66;364167;290;621304;-59
2022/09/16 06:47:55;;;;;;;4.33;3.92;;;;;;;22.66;61.51;95883.80;363860;290;621942;-59
2022/09/16 06:49:57;;;;;;;4.60;3.70;;;;;;;22.67;61.33;95880.67;363382;290;621049;-60
2022/09/16 06:51:59;;;;;;;4.25;3.85;;;;;;;22.65;61.28;95885.77;363221;290;621494;-60
2022/09/16 06:54:01;;;;;;;5.20;3.67;;;;;;;22.65;61.39;95884.94;364220;290;618762;-58
2022/09/16 06:56:03;;;;;;;3.98;3.67;;;;;;;22.64;61.41;95884.14;363904;290;621226;-60
2022/09/16 06:58:06;;;;;;;4.50;3.40;;;;;;;22.65;61.39;95876.66;363506;290;620696;-58
2022/09/16 07:00:08;;;;;;;4.30;3.67;;;;;;;22.62;61.34;95882.92;363181;290;621393;-61
2022/09/16 07:02:10;;;;;;;3.87;3.40;;;;;;;22.68;61.38;95880.88;364224;290;621040;-60
2022/09/16 07:04:13;;;;;;;3.65;3.05;;;;;;;22.68;61.37;95886.99;363997;290;621314;-58
2022/09/16 07:06:15;;;;;;;3.75;3.10;;;;;;;22.67;61.44;95882.64;364316;290;621049;-58
2022/09/16 07:08:17;;;;;;;6.20;3.40;;;;;;;22.67;61.39;95883.43;364678;290;620382;-60
2022/09/16 07:10:19;;;;;;;4.35;3.20;;;;;;;22.68;61.35;95880.09;364352;290;620150;-60
2022/09/16 07:12:21;;;;;;;4.17;3.55;;;;;;;22.67;61.31;95882.05;364159;290;621244;-60
2022/09/16 07:14:23;;;;;;;3.58;3.27;;;;;;;22.67;61.28;95884.02;363630;290;620292;-59
2022/09/16 07:16:25;;;;;;;3.87;3.40;;;;;;;22.66;61.35;95879.66;363268;290;620346;-60
2022/09/16 07:18:28;;;;;;;4.42;3.50;;;;;;;22.65;61.35;95889.08;363972;290;621503;-59
2022/09/16 07:20:30;;;;;;;4.80;3.50;;;;;;;22.66;61.40;95879.08;364085;290;621730;-57
2022/09/16 07:22:32;;;;;;;3.75;2.87;;;;;;;22.65;61.44;95883.01;363307;290;620332;-61
2022/09/16 07:24:34;;;;;;;4.12;3.50;;;;;;;22.66;61.42;95884.60;363243;290;621471;-59
2022/09/16 07:28:45;;;;;;;3.60;3.12;;;;;;;22.70;61.50;95886.03;364058;290;580765;-61
2022/09/16 07:30:47;;;;;;;4.28;3.20;;;;;;;22.69;61.48;95883.06;363754;290;619512;-57
2022/09/16 07:32:49;;;;;;;6.03;3.40;;;;;;;22.70;61.40;95888.80;363285;290;621295;-59
2022/09/16 07:34:52;;;;;;;3.80;3.20;;;;;;;22.70;61.44;95888.80;364440;290;621493;-59
2022/09/16 07:36:55;;;;;;;4.75;3.42;;;;;;;22.64;61.43;95887.49;364217;290;622586;-60
2022/09/16 07:38:57;;;;;;;4.80;3.40;;;;;;;22.63;61.45;95885.90;364108;290;622225;-60
2022/09/16 07:40:59;;;;;;;5.72;3.47;;;;;;;22.65;61.48;95883.56;363987;290;620588;-62
2022/09/16 07:43:02;;;;;;;5.08;3.22;;;;;;;22.66;61.52;95881.84;363681;290;620208;-62
2022/09/16 07:45:05;;;;;;;4.25;3.42;;;;;;;22.72;61.48;95881.73;363925;290;621173;-58
2022/09/16 07:47:07;;;;;;;4.20;3.20;;;;;;;22.69;61.56;95882.48;363687;290;619248;-59
2022/09/16 07:49:09;;;;;;;6.83;3.80;;;;;;;22.71;61.43;95880.72;363238;290;620243;-58
2022/09/16 07:51:11;;;;;;;3.72;3.42;;;;;;;22.67;61.57;95874.35;363745;290;619736;-60
2022/09/16 07:53:13;;;;;;;5.33;3.45;;;;;;;22.69;61.49;95880.30;363934;290;620250;-62
2022/09/16 07:55:16;;;;;;;6.03;3.62;;;;;;;22.69;61.50;95883.06;363592;290;621961;-60
2022/09/16 07:57:18;;;;;;;5.25;3.58;;;;;;;22.68;61.58;95877.33;364296;290;621876;-60
2022/09/16 07:59:20;;;;;;;5.20;3.50;;;;;;;22.67;61.56;95884.81;364469;290;619743;-61
2022/09/16 08:01:22;;;;;;;3.77;3.40;;;;;;;22.65;61.51;95882.18;363896;290;620367;-61
2022/09/16 08:03:24;;;;;;;3.52;3.22;;;;;;;22.67;61.52;95884.02;363567;290;621392;-61
2022/09/16 08:05:27;;;;;;;4.03;3.50;;;;;;;22.66;61.55;95884.60;364126;290;620943;-60
2022/09/16 08:07:29;;;;;;;4.85;3.85;;;;;;;22.64;61.43;95881.97;364481;290;621638;-61
2022/09/16 08:09:31;;;;;;;5.40;3.90;;;;;;;22.66;61.36;95887.95;363978;290;620354;-62
2022/09/16 08:11:33;;;;;;;3.95;3.15;;;;;;;22.65;61.44;95875.28;363681;290;621498;-61
2022/09/16 08:13:35;;;;;;;4.97;4.15;;;;;;;22.63;61.40;95881.17;363604;290;619120;-60
2022/09/16 08:15:37;;;;;;;4.67;3.95;;;;;;;22.63;61.38;95879.79;364176;290;620329;-60
2022/09/16 08:17:39;;;;;;;5.22;4.05;;;;;;;22.65;61.40;95882.18;363915;290;620477;-61
2022/09/16 08:19:41;;;;;;;4.75;3.83;;;;;;;22.65;61.36;95873.34;363619;290;620443;-61
2022/09/16 08:21:43;;;;;;;4.58;4.05;;;;;;;22.63;61.36;95877.61;363388;290;621046;-61
2022/09/16 08:23:46;;;;;;;5.03;4.10;;;;;;;22.62;61.36;95874.05;363753;290;621238;-62
2022/09/16 08:25:48;;;;;;;5.15;4.12;;;;;;;22.63;61.31;95874.27;363484;290;621282;-61
2022/09/16 08:27:50;;;;;;;5.67;3.95;;;;;;;22.62;61.33;95881.55;364232;290;620762;-60
2022/09/16 08:29:52;;;;;;;4.72;4.30;;;;;;;22.60;61.26;95876.98;364587;290;620694;-60
2022/09/16 08:31:54;;;;;;;4.92;3.95;;;;;;;22.61;61.29;95879.95;363789;290;622053;-61
2022/09/16 08:33:56;;;;;;;4.42;4.03;;;;;;;22.59;61.26;95880.91;363690;290;620698;-59
2022/09/16 08:35:58;;;;;;;4.30;3.83;;;;;;;22.59;61.21;95879.53;363995;290;621372;-61
2022/09/16 08:38:01;;;;;;;5.30;4.10;;;;;;;22.60;61.25;95884.67;363193;290;621583;-61
2022/09/16 08:40:04;;;;;;;5.10;4.20;;;;;;;22.67;61.22;95884.02;363380;290;620229;-61
2022/09/16 08:42:06;;;;;;;5.72;4.25;;;;;;;22.66;61.13;95885.98;364007;290;621012;-61
2022/09/16 08:44:08;;;;;;;4.85;4.30;;;;;;;22.63;61.22;95885.90;363322;290;621546;-60
2022/09/16 08:46:10;;;;;;;4.37;3.95;;;;;;;22.67;61.23;95889.54;363920;290;620387;-60
2022/09/16 08:48:12;;;;;;;4.30;3.90;;;;;;;22.65;61.24;95890.47;365153;290;621613;-61
2022/09/16 08:50:15;;;;;;;4.95;3.98;;;;;;;22.63;61.21;95888.08;364799;290;619279;-61
2022/09/16 08:52:20;;;;;;;5.37;4.25;;;;;;;22.60;61.18;95893.55;364264;290;619384;-61
2022/09/16 08:54:22;;;;;;;5.10;4.03;;;;;;;22.63;61.12;95895.56;363739;290;621414;-61
2022/09/16 08:56:24;;;;;;;4.83;4.00;;;;;;;22.61;61.10;95891.00;365209;290;621491;-61
2022/09/16 08:58:26;;;;;;;4.25;3.80;;;;;;;22.62;61.31;95884.30;364719;290;620403;-61
2022/09/16 09:00:28;;;;;;;7.53;4.22;;;;;;;22.62;61.21;95888.45;364738;290;620618;-60
2022/09/16 09:02:31;;;;;;;4.12;3.72;;;;;;;22.62;61.05;95882.92;364725;290;621525;-61
2022/09/16 09:04:33;;;;;;;4.40;4.00;;;;;;;22.58;61.06;95887.60;364908;290;620368;-60
2022/09/16 09:06:35;;;;;;;4.05;3.72;;;;;;;22.62;61.12;95897.53;364880;290;621425;-61
2022/09/16 09:08:37;;;;;;;5.42;3.80;;;;;;;22.62;61.20;95892.59;364455;290;621617;-60
2022/09/16 09:10:39;;;;;;;4.12;3.72;;;;;;;22.62;61.22;95893.97;364365;290;621175;-61
2022/09/16 09:12:41;;;;;;;4.25;3.85;;;;;;;22.62;61.10;95893.39;363382;290;620393;-61
2022/09/16 09:14:43;;;;;;;4.08;3.77;;;;;;;22.63;61.13;95884.52;364234;290;620178;-61
2022/09/16 09:16:45;;;;;;;4.65;4.03;;;;;;;22.62;61.00;95883.72;364644;290;621499;-61
2022/09/16 09:18:48;;;;;;;3.95;3.65;;;;;;;22.65;60.99;95891.30;364937;290;620872;-60
2022/09/16 09:20:50;;;;;;;5.30;3.70;;;;;;;22.62;60.96;95878.20;364600;290;620441;-61
2022/09/16 09:22:53;;;;;;;4.45;4.08;;;;;;;22.62;61.07;95880.96;364387;290;620616;-60
2022/09/16 09:24:55;;;;;;;4.45;3.95;;;;;;;22.62;60.97;95878.78;364336;290;620230;-61
2022/09/16 09:26:58;;;;;;;4.12;3.72;;;;;;;22.62;60.96;95880.16;364680;290;622423;-62